Time;durP1;ratioP1;P1;durP2;ratioP2;P2;SDS_P1;SDS_P2;PMS_P1;PMS_P2;Temp;Humidity;BMP_temperature;BMP_pressure;BME280_temperature;BME280_humidity;BME280_pressure;Samples;Min_cycle;Max_cycle;Signal;HPM_P1;HPM_P2
2023/01/02 07:02:41;;;;;;;6.25;1.25;;;;;;;;;;10037343;29;20785;-79
2023/01/02 07:33:43;;;;;;;6.57;1.35;;;;;;;;;;9694146;30;20119;-80
2023/01/02 07:39:22;;;;;;;7.78;1.67;;;;;;;;;;9834989;29;20077;-79
2023/01/02 07:44:37;;;;;;;7.47;1.75;;;;;;;;;;10033384;29;20050;-79
2023/01/02 07:50:19;;;;;;;6.82;1.73;;;;;;;;;;10033709;29;20041;-80
2023/01/02 07:55:59;;;;;;;5.05;1.63;;;;;;;;;;10123249;23;20056;-83
2023/01/02 08:01:07;;;;;;;5.70;2.00;;;;;;;;;;10085349;29;20075;-83
2023/01/02 08:06:12;;;;;;;8.95;2.38;;;;;;;;;;10116410;29;20056;-82
2023/01/02 08:11:18;;;;;;;9.67;1.60;;;;;;;;;;10103076;29;20136;-84
2023/01/02 08:16:22;;;;;;;;;;;;;;;;;;10123542;29;20057;-82
2023/01/02 08:21:26;;;;;;;10.85;3.20;;;;;;;;;;10100851;29;19923;-87
2023/01/02 08:26:31;;;;;;;7.25;2.55;;;;;;;;;;10114620;29;20057;-84
2023/01/02 08:31:36;;;;;;;4.60;1.75;;;;;;;;;;10101904;29;20045;-81
2023/01/02 08:36:44;;;;;;;8.50;1.98;;;;;;;;;;10095796;29;20128;-83
2023/01/02 08:41:49;;;;;;;4.35;1.52;;;;;;;;;;10091153;29;20052;-83
2023/01/02 08:46:52;;;;;;;12.27;2.00;;;;;;;;;;10090475;29;20056;-83
2023/01/02 08:51:55;;;;;;;9.50;2.03;;;;;;;;;;10104095;29;20512;-83
2023/01/02 08:57:00;;;;;;;6.65;1.67;;;;;;;;;;10086005;29;20516;-83
2023/01/02 09:02:04;;;;;;;5.07;1.70;;;;;;;;;;10098883;29;20056;-82
2023/01/02 09:07:07;;;;;;;4.00;1.50;;;;;;;;;;10084694;29;20052;-84
2023/01/02 09:12:12;;;;;;;4.03;1.50;;;;;;;;;;10093515;29;20048;-82
2023/01/02 09:17:16;;;;;;;5.88;1.55;;;;;;;;;;10086612;29;20088;-84
2023/01/02 09:22:19;;;;;;;8.75;1.90;;;;;;;;;;10091788;29;20139;-82
2023/01/02 09:27:24;;;;;;;7.55;1.63;;;;;;;;;;10065781;29;20079;-83
2023/01/02 09:32:27;;;;;;;11.27;2.25;;;;;;;;;;10072232;29;20056;-83
2023/01/02 09:37:33;;;;;;;4.07;1.52;;;;;;;;;;10071590;29;20057;-83
2023/01/02 09:42:38;;;;;;;8.53;1.87;;;;;;;;;;10100322;29;20049;-83
2023/01/02 09:47:44;;;;;;;5.00;1.58;;;;;;;;;;10100397;29;20057;-82
2023/01/02 09:52:52;;;;;;;7.57;2.03;;;;;;;;;;10103329;29;20052;-82
2023/01/02 09:58:04;;;;;;;8.25;2.10;;;;;;;;;;10096219;29;20045;-84
2023/01/02 10:03:17;;;;;;;9.52;2.47;;;;;;;;;;10095794;29;20071;-85
2023/01/02 10:08:29;;;;;;;3.30;1.55;;;;;;;;;;10115043;29;20048;-83
2023/01/02 10:13:41;;;;;;;7.38;2.13;;;;;;;;;;10118776;29;20052;-85
2023/01/02 10:19:12;;;;;;;5.15;2.00;;;;;;;;;;10122044;29;20059;-84
2023/01/02 10:24:19;;;;;;;7.90;2.30;;;;;;;;;;10114461;29;20049;-83
2023/01/02 10:29:38;;;;;;;6.70;1.80;;;;;;;;;;10137906;29;20055;-85
2023/01/02 10:34:45;;;;;;;10.88;2.58;;;;;;;;;;10128232;29;20056;-83
2023/01/02 10:39:50;;;;;;;4.32;1.40;;;;;;;;;;10113565;29;20127;-84
2023/01/02 10:44:55;;;;;;;7.95;2.45;;;;;;;;;;10127547;29;20057;-85
2023/01/02 10:49:59;;;;;;;9.55;2.35;;;;;;;;;;10101248;29;20075;-84
2023/01/02 10:55:03;;;;;;;6.78;1.63;;;;;;;;;;10118386;29;20059;-85
2023/01/02 11:00:24;;;;;;;4.80;1.63;;;;;;;;;;10110317;29;20465;-85
2023/01/02 11:05:31;;;;;;;5.38;2.08;;;;;;;;;;10124530;29;20453;-85
2023/01/02 11:10:38;;;;;;;5.35;1.70;;;;;;;;;;10113752;29;20040;-85
2023/01/02 11:15:50;;;;;;;4.55;1.38;;;;;;;;;;10124361;29;20068;-85
2023/01/02 11:21:02;;;;;;;5.57;2.10;;;;;;;;;;10100401;29;20464;-85
2023/01/02 11:26:12;;;;;;;5.43;1.67;;;;;;;;;;10126379;29;20148;-83
2023/01/02 11:31:21;;;;;;;7.72;2.10;;;;;;;;;;10125885;29;20056;-85
2023/01/02 11:36:26;;;;;;;4.05;1.35;;;;;;;;;;10109241;29;20053;-84
2023/01/02 11:46:54;;;;;;;3.03;1.02;;;;;;;;;;10136860;29;20209;-82
2023/01/02 11:52:02;;;;;;;2.27;1.07;;;;;;;;;;10125029;29;20059;-83
2023/01/02 11:57:10;;;;;;;3.60;1.50;;;;;;;;;;10126004;29;20708;-84
2023/01/02 12:02:24;;;;;;;3.95;1.33;;;;;;;;;;10121160;29;20073;-84
2023/01/02 12:07:42;;;;;;;3.03;1.40;;;;;;;;;;10114377;29;20832;-84
2023/01/02 12:12:58;;;;;;;4.35;1.75;;;;;;;;;;10100737;29;20060;-84
2023/01/02 12:18:13;;;;;;;3.55;0.80;;;;;;;;;;10099755;29;20075;-84
2023/01/02 12:23:49;;;;;;;5.55;1.20;;;;;;;;;;10088759;29;20048;-84
2023/01/02 12:29:22;;;;;;;7.93;1.65;;;;;;;;;;10095893;29;20138;-85
2023/01/02 12:34:45;;;;;;;5.20;1.70;;;;;;;;;;10065357;29;20053;-83
2023/01/02 12:40:05;;;;;;;4.28;1.65;;;;;;;;;;10075280;29;20041;-84
2023/01/02 12:45:17;;;;;;;7.25;1.63;;;;;;;;;;10104366;29;20136;-84
2023/01/02 12:50:43;;;;;;;7.07;1.98;;;;;;;;;;10083420;29;20135;-84
2023/01/02 12:56:02;;;;;;;2.92;1.00;;;;;;;;;;10104176;29;20415;-85
2023/01/02 13:01:16;;;;;;;3.73;1.33;;;;;;;;;;10084665;29;20045;-85
2023/01/02 13:06:25;;;;;;;5.57;1.48;;;;;;;;;;10079747;29;20611;-84
2023/01/02 13:11:37;;;;;;;2.65;1.45;;;;;;;;;;10087202;29;20162;-86
2023/01/02 13:16:44;;;;;;;2.47;1.20;;;;;;;;;;10112075;29;20045;-83
2023/01/02 13:21:54;;;;;;;2.72;1.00;;;;;;;;;;10084213;29;20080;-84
2023/01/02 13:26:59;;;;;;;1.92;0.73;;;;;;;;;;10077404;29;20297;-84
2023/01/02 13:32:03;;;;;;;3.30;0.70;;;;;;;;;;10088479;29;20479;-86
2023/01/02 13:37:10;;;;;;;2.15;0.75;;;;;;;;;;10095087;29;20911;-87
2023/01/02 13:47:50;;;;;;;0.98;0.50;;;;;;;;;;10145722;29;20055;-87
2023/01/02 13:53:26;;;;;;;0.73;0.60;;;;;;;;;;10140095;29;20061;-86
2023/01/02 13:59:26;;;;;;;2.42;0.47;;;;;;;;;;10107365;29;20108;-84
2023/01/02 14:04:42;;;;;;;0.85;0.70;;;;;;;;;;10071139;29;20079;-86
2023/01/02 14:10:14;;;;;;;1.80;0.70;;;;;;;;;;10063968;29;20049;-86
2023/01/02 14:15:24;;;;;;;2.35;0.90;;;;;;;;;;10056075;29;20501;-86
2023/01/02 14:20:32;;;;;;;1.42;0.50;;;;;;;;;;10065700;29;20041;-86
2023/01/02 14:25:49;;;;;;;2.22;0.95;;;;;;;;;;10057054;29;20045;-88
2023/01/02 14:30:53;;;;;;;1.92;0.68;;;;;;;;;;10043618;29;20068;-85
2023/01/02 14:36:05;;;;;;;2.45;0.50;;;;;;;;;;10051748;29;20444;-84
2023/01/02 14:47:12;;;;;;;0.80;0.50;;;;;;;;;;10068970;29;20052;-84
2023/01/02 14:52:25;;;;;;;0.77;0.65;;;;;;;;;;10051676;29;20922;-85
2023/01/02 14:57:37;;;;;;;1.20;0.75;;;;;;;;;;10053801;29;20088;-83
2023/01/02 15:02:46;;;;;;;0.98;0.73;;;;;;;;;;10052438;29;20077;-84
2023/01/02 15:07:54;;;;;;;0.82;0.70;;;;;;;;;;10050685;29;20521;-83
2023/01/02 15:13:07;;;;;;;1.60;0.88;;;;;;;;;;10064839;29;20053;-87
2023/01/02 15:18:20;;;;;;;0.82;0.60;;;;;;;;;;10070571;29;20408;-86
2023/01/02 15:23:27;;;;;;;1.95;0.90;;;;;;;;;;10063196;29;20053;-86
2023/01/02 15:28:33;;;;;;;0.60;0.60;;;;;;;;;;10062592;29;20132;-83
2023/01/02 15:33:37;;;;;;;0.63;0.50;;;;;;;;;;10061533;29;20060;-83
2023/01/02 15:38:41;;;;;;;0.90;0.55;;;;;;;;;;10061602;29;20505;-83
2023/01/02 15:49:14;;;;;;;0.80;0.47;;;;;;;;;;10052460;29;20132;-83
2023/01/02 15:54:18;;;;;;;0.68;0.60;;;;;;;;;;10060594;29;20049;-82
2023/01/02 15:59:29;;;;;;;1.00;0.55;;;;;;;;;;10053033;29;20053;-83
2023/01/02 16:04:35;;;;;;;0.95;0.77;;;;;;;;;;10050937;29;20128;-82
2023/01/02 16:09:40;;;;;;;1.58;0.90;;;;;;;;;;10051329;29;20092;-83
2023/01/02 16:14:59;;;;;;;1.17;0.52;;;;;;;;;;10030035;29;20077;-85
2023/01/02 16:20:06;;;;;;;1.90;1.00;;;;;;;;;;10072496;29;20064;-85
2023/01/02 16:25:17;;;;;;;1.20;0.90;;;;;;;;;;10060681;29;20045;-83
2023/01/02 16:30:31;;;;;;;2.08;1.27;;;;;;;;;;10073206;29;20093;-86
2023/01/02 16:35:36;;;;;;;4.72;1.98;;;;;;;;;;10059642;29;20523;-85
2023/01/02 16:40:48;;;;;;;0.73;0.70;;;;;;;;;;10053687;29;20493;-85
2023/01/02 16:45:54;;;;;;;3.42;1.85;;;;;;;;;;10079430;29;20157;-83
2023/01/02 16:58:03;;;;;;;1.70;0.80;;;;;;;;;;10063299;29;20037;-83
2023/01/02 17:03:13;;;;;;;1.98;1.02;;;;;;;;;;10052971;29;20105;-86
2023/01/02 17:08:17;;;;;;;2.10;0.80;;;;;;;;;;10053891;29;20117;-85
2023/01/02 17:13:21;;;;;;;1.10;1.00;;;;;;;;;;10078323;29;20067;-86
2023/01/02 17:18:28;;;;;;;1.58;1.00;;;;;;;;;;10074824;29;20939;-86
2023/01/02 17:23:32;;;;;;;1.02;0.88;;;;;;;;;;10081616;29;20063;-85
2023/01/02 17:28:35;;;;;;;1.35;0.80;;;;;;;;;;10098893;29;20057;-86
2023/01/02 17:33:45;;;;;;;6.45;4.28;;;;;;;;;;10083947;29;20052;-85
2023/01/02 17:38:51;;;;;;;4.78;2.80;;;;;;;;;;10071807;29;20065;-86
2023/01/02 17:43:57;;;;;;;6.78;3.20;;;;;;;;;;10091725;29;20109;-85
2023/01/02 17:49:05;;;;;;;5.30;2.00;;;;;;;;;;10077368;29;20057;-86
2023/01/02 17:54:09;;;;;;;4.65;2.92;;;;;;;;;;10080225;29;20105;-86
2023/01/02 17:59:17;;;;;;;2.38;1.30;;;;;;;;;;10075986;29;20136;-86
2023/01/02 18:04:22;;;;;;;0.93;0.73;;;;;;;;;;10079295;29;20051;-85
2023/01/02 18:09:31;;;;;;;1.48;0.80;;;;;;;;;;10076496;29;20090;-85
2023/01/02 18:14:35;;;;;;;2.88;0.80;;;;;;;;;;10070794;29;20148;-87
2023/01/02 18:19:40;;;;;;;1.88;0.80;;;;;;;;;;10077294;29;20610;-86
2023/01/02 18:24:45;;;;;;;1.10;1.00;;;;;;;;;;10087087;29;20471;-85
2023/01/02 18:29:59;;;;;;;0.90;0.73;;;;;;;;;;10060648;29;20098;-85
2023/01/02 18:35:20;;;;;;;0.90;0.70;;;;;;;;;;10050877;29;20080;-87
2023/01/02 18:40:47;;;;;;;2.45;1.00;;;;;;;;;;10062706;29;20117;-85
2023/01/02 18:45:54;;;;;;;1.00;0.82;;;;;;;;;;10088369;29;20069;-88
2023/01/02 18:51:02;;;;;;;0.80;0.73;;;;;;;;;;10061082;29;20056;-80
2023/01/02 18:56:15;;;;;;;1.10;0.75;;;;;;;;;;10057614;29;20103;-80
2023/01/02 19:01:28;;;;;;;1.25;0.90;;;;;;;;;;10073676;29;20057;-80
2023/01/02 19:06:39;;;;;;;1.58;0.80;;;;;;;;;;10065146;29;20041;-80
2023/01/02 19:17:15;;;;;;;4.93;3.05;;;;;;;;;;10058008;29;20052;-80
2023/01/02 19:22:22;;;;;;;3.88;1.90;;;;;;;;;;10056129;29;20413;-80
2023/01/02 19:27:36;;;;;;;3.75;2.53;;;;;;;;;;10057533;29;20237;-80
2023/01/02 19:32:40;;;;;;;2.63;1.63;;;;;;;;;;10068840;29;20044;-80
2023/01/02 19:37:46;;;;;;;2.22;1.27;;;;;;;;;;10054769;29;20114;-80
2023/01/02 19:42:51;;;;;;;1.48;1.00;;;;;;;;;;10059671;29;20073;-80
2023/01/02 19:47:57;;;;;;;3.00;1.40;;;;;;;;;;10057474;29;20060;-81
2023/01/02 19:53:04;;;;;;;2.17;1.00;;;;;;;;;;10056164;29;20087;-80
2023/01/02 19:58:07;;;;;;;1.42;0.90;;;;;;;;;;10101890;23;20571;-83
2023/01/02 20:03:12;;;;;;;3.40;1.70;;;;;;;;;;10120811;29;20118;-82
2023/01/02 20:08:17;;;;;;;2.05;1.60;;;;;;;;;;10113355;29;20051;-83
2023/01/02 20:13:20;;;;;;;8.48;3.63;;;;;;;;;;10107297;29;20047;-83
2023/01/02 20:18:24;;;;;;;1.88;1.10;;;;;;;;;;10119418;29;20108;-83
2023/01/02 20:23:29;;;;;;;0.95;0.80;;;;;;;;;;10108297;29;20075;-83
2023/01/02 20:28:32;;;;;;;3.10;0.93;;;;;;;;;;10130161;29;20279;-81
2023/01/02 20:33:36;;;;;;;1.05;0.80;;;;;;;;;;10103097;29;20041;-81
2023/01/02 20:38:44;;;;;;;2.00;1.02;;;;;;;;;;10099136;29;20056;-82
2023/01/02 20:43:49;;;;;;;2.70;1.60;;;;;;;;;;10111822;29;20059;-82
2023/01/02 20:48:55;;;;;;;1.23;1.10;;;;;;;;;;10105116;29;20534;-84
2023/01/02 20:54:00;;;;;;;3.63;1.70;;;;;;;;;;10122445;29;20049;-83
2023/01/02 20:59:04;;;;;;;1.53;1.00;;;;;;;;;;10110148;29;20066;-84
2023/01/02 21:04:07;;;;;;;0.95;0.80;;;;;;;;;;10114616;29;20059;-84
2023/01/02 21:09:12;;;;;;;2.10;1.55;;;;;;;;;;10126905;29;20123;-85
2023/01/02 21:14:16;;;;;;;1.83;1.10;;;;;;;;;;10141466;29;20044;-85
2023/01/02 21:19:19;;;;;;;1.15;0.75;;;;;;;;;;10120585;29;20079;-84
2023/01/02 21:24:24;;;;;;;4.47;1.58;;;;;;;;;;10132174;29;20059;-84
2023/01/02 21:29:27;;;;;;;1.90;1.25;;;;;;;;;;10118869;29;20643;-83
2023/01/02 21:34:31;;;;;;;1.25;0.85;;;;;;;;;;10099329;29;20364;-82
2023/01/02 21:39:36;;;;;;;0.93;0.82;;;;;;;;;;10108187;29;20084;-82
2023/01/02 21:44:39;;;;;;;0.63;0.52;;;;;;;;;;10089038;29;20120;-85
2023/01/02 21:49:43;;;;;;;0.90;0.70;;;;;;;;;;10087957;29;20134;-84
2023/01/02 21:54:48;;;;;;;2.90;0.90;;;;;;;;;;10091050;29;20066;-85
2023/01/02 21:59:51;;;;;;;1.63;0.63;;;;;;;;;;10097250;29;20051;-85
2023/01/02 22:04:54;;;;;;;1.95;0.88;;;;;;;;;;10106891;29;20643;-85
2023/01/02 22:10:00;;;;;;;1.50;0.70;;;;;;;;;;10096994;29;20072;-83
2023/01/02 22:15:05;;;;;;;0.82;0.65;;;;;;;;;;10111386;29;20052;-84
2023/01/02 22:20:09;;;;;;;1.45;0.70;;;;;;;;;;10101250;29;20117;-84
2023/01/02 22:25:14;;;;;;;0.93;0.60;;;;;;;;;;10098359;29;20135;-84
2023/01/02 22:30:18;;;;;;;0.52;0.50;;;;;;;;;;10107125;29;20044;-85
2023/01/02 22:35:24;;;;;;;0.85;0.80;;;;;;;;;;10106989;29;20053;-85
2023/01/02 22:40:29;;;;;;;1.98;0.73;;;;;;;;;;10114701;29;20147;-84
2023/01/02 22:45:40;;;;;;;2.85;0.75;;;;;;;;;;10129906;29;20086;-84
2023/01/02 22:50:45;;;;;;;1.25;0.88;;;;;;;;;;10090590;29;20713;-84
2023/01/02 22:55:50;;;;;;;0.82;0.50;;;;;;;;;;10094560;29;20064;-84
2023/01/02 23:00:59;;;;;;;1.17;0.60;;;;;;;;;;10088682;29;20750;-85
2023/01/02 23:06:05;;;;;;;0.52;0.28;;;;;;;;;;10103625;29;20650;-84
2023/01/02 23:11:10;;;;;;;0.68;0.30;;;;;;;;;;10098199;29;20055;-84
2023/01/02 23:21:36;;;;;;;0.20;0.20;;;;;;;;;;10103916;29;20147;-85
2023/01/02 23:26:45;;;;;;;0.77;0.30;;;;;;;;;;10107414;29;20159;-85
2023/01/02 23:31:50;;;;;;;0.35;0.30;;;;;;;;;;10119610;29;20057;-85
2023/01/02 23:36:54;;;;;;;0.50;0.20;;;;;;;;;;10124072;29;20787;-85
2023/01/02 23:41:59;;;;;;;2.67;0.75;;;;;;;;;;10120128;29;20464;-83
2023/01/02 23:47:02;;;;;;;1.08;0.40;;;;;;;;;;10090829;29;20057;-84
2023/01/02 23:52:09;;;;;;;0.98;0.45;;;;;;;;;;10100376;29;20048;-85
2023/01/02 23:57:14;;;;;;;0.30;0.30;;;;;;;;;;10102794;29;20420;-85
